createdAt,value
2018-06-21T00:02:23.354Z,7.53
2018-06-21T00:05:21.190Z,7.80
2018-06-21T00:08:18.966Z,8.10
2018-06-21T00:11:16.990Z,8.10
2018-06-21T00:14:14.938Z,8.73
2018-06-21T00:17:12.848Z,8.30
2018-06-21T00:20:10.534Z,8.23
2018-06-21T00:23:08.291Z,7.67
2018-06-21T00:26:05.894Z,8.17
2018-06-21T00:29:03.713Z,8.57
2018-06-21T00:32:01.725Z,8.53
2018-06-21T00:34:59.470Z,8.60
2018-06-21T00:37:57.107Z,7.73
2018-06-21T00:40:54.975Z,8.03
2018-06-21T00:43:52.709Z,8.47
2018-06-21T00:46:50.642Z,7.40
2018-06-21T00:49:48.511Z,8.90
2018-06-21T00:52:46.244Z,8.10
2018-06-21T00:55:56.278Z,8.30
2018-06-21T00:58:55.158Z,8.33
2018-06-21T01:01:52.968Z,8.60
2018-06-21T01:04:50.597Z,7.50
2018-06-21T01:07:48.746Z,8.60
2018-06-21T01:10:47.230Z,8.53
2018-06-21T01:13:45.757Z,8.33
2018-06-21T01:16:43.498Z,7.63
2018-06-21T01:19:41.349Z,8.67
2018-06-21T01:22:39.150Z,8.20
2018-06-21T01:25:36.881Z,9.40
2018-06-21T01:28:35.617Z,7.70
2018-06-21T01:31:33.286Z,7.47
2018-06-21T01:34:31.029Z,9.47
2018-06-21T01:37:28.815Z,8.67
2018-06-21T01:40:26.490Z,7.33
2018-06-21T01:43:24.279Z,8.10
2018-06-21T01:46:22.096Z,7.27
2018-06-21T01:49:19.914Z,6.93
2018-06-21T01:52:17.677Z,7.53
2018-06-21T01:55:15.572Z,6.93
2018-06-21T01:58:13.469Z,7.50
2018-06-21T02:01:11.185Z,7.30
2018-06-21T02:04:08.952Z,7.23
2018-06-21T02:07:07.049Z,9.00
2018-06-21T02:10:04.693Z,8.30
2018-06-21T02:13:02.639Z,8.20
2018-06-21T02:16:00.234Z,8.87
2018-06-21T02:18:58.184Z,8.90
2018-06-21T02:21:56.053Z,9.03
2018-06-21T02:24:53.878Z,8.87
2018-06-21T02:27:51.778Z,9.43
2018-06-21T02:30:49.936Z,8.87
2018-06-21T02:33:47.693Z,8.57
2018-06-21T02:36:45.510Z,8.07
2018-06-21T02:39:43.483Z,7.87
2018-06-21T02:42:41.268Z,7.07
2018-06-21T02:45:39.027Z,6.07
2018-06-21T02:48:36.934Z,6.20
2018-06-21T02:51:34.545Z,6.07
2018-06-21T02:54:32.451Z,5.17
2018-06-21T02:57:30.190Z,5.83
2018-06-21T03:00:27.836Z,6.10
2018-06-21T03:03:25.602Z,5.87
2018-06-21T03:06:23.265Z,6.00
2018-06-21T03:09:22.018Z,6.30
2018-06-21T03:12:25.617Z,6.13
2018-06-21T03:15:23.389Z,7.23
2018-06-21T03:18:21.615Z,7.90
2018-06-21T03:21:19.360Z,7.33
2018-06-21T03:24:17.325Z,6.67
2018-06-21T03:27:16.194Z,7.23
2018-06-21T03:30:13.838Z,6.80
2018-06-21T03:33:11.643Z,6.13
2018-06-21T03:36:09.414Z,5.77
2018-06-21T03:39:07.211Z,5.53
2018-06-21T03:42:05.329Z,6.13
2018-06-21T03:45:04.322Z,5.70
2018-06-21T03:48:02.951Z,6.17
2018-06-21T03:51:00.790Z,5.37
2018-06-21T03:53:58.838Z,7.90
2018-06-21T03:56:56.642Z,8.77
2018-06-21T03:59:54.271Z,6.40
2018-06-21T04:02:52.262Z,5.33
2018-06-21T04:05:50.213Z,5.93
2018-06-21T04:08:47.967Z,5.90
2018-06-21T04:11:45.751Z,4.37
2018-06-21T04:14:43.511Z,4.97
2018-06-21T04:17:41.343Z,4.40
2018-06-21T04:20:39.122Z,4.90
2018-06-21T04:23:37.014Z,5.07
2018-06-21T04:26:34.858Z,4.90
2018-06-21T04:29:32.491Z,5.60
2018-06-21T04:32:30.256Z,4.67
2018-06-21T04:35:28.049Z,5.37
2018-06-21T04:38:26.834Z,5.30
2018-06-21T04:41:24.799Z,5.23
2018-06-21T04:44:22.402Z,5.53
2018-06-21T04:47:20.273Z,5.03
2018-06-21T04:50:18.124Z,5.23
2018-06-21T04:53:17.271Z,4.67
2018-06-21T05:05:54.923Z,5.23
2018-06-21T05:08:52.858Z,5.67
2018-06-21T05:11:50.774Z,5.47
2018-06-21T05:14:48.471Z,5.27
2018-06-21T05:17:46.722Z,5.23
2018-06-21T05:20:44.473Z,5.57
2018-06-21T05:23:42.221Z,5.23
2018-06-21T05:26:39.981Z,5.50
2018-06-21T05:29:37.650Z,5.97
2018-06-21T05:32:35.392Z,6.43
2018-06-21T05:35:33.296Z,6.07
2018-06-21T05:38:34.769Z,6.60
2018-06-21T05:41:35.582Z,7.13
2018-06-21T05:44:33.437Z,6.97
2018-06-21T05:47:31.238Z,6.57
2018-06-21T05:50:29.008Z,7.40
2018-06-21T05:53:26.813Z,7.53
2018-06-21T05:56:24.582Z,8.30
2018-06-21T05:59:22.167Z,8.57
2018-06-21T06:02:19.858Z,7.70
2018-06-21T06:05:17.602Z,7.80
2018-06-21T06:08:15.589Z,8.37
2018-06-21T06:11:14.311Z,8.97
2018-06-21T06:14:12.004Z,9.83
2018-06-21T06:17:10.639Z,10.33
2018-06-21T06:20:09.365Z,11.67
2018-06-21T06:23:07.131Z,14.90
2018-06-21T06:26:05.030Z,13.33
2018-06-21T06:29:02.778Z,14.17
2018-06-21T06:32:00.664Z,16.20
2018-06-21T06:34:58.407Z,16.33
2018-06-21T06:37:56.182Z,17.13
2018-06-21T06:40:54.092Z,20.50
2018-06-21T06:43:51.873Z,19.00
2018-06-21T06:46:49.546Z,20.10
2018-06-21T06:49:47.233Z,21.37
2018-06-21T06:52:45.383Z,19.33
2018-06-21T06:55:43.383Z,16.70
2018-06-21T06:58:41.148Z,15.90
2018-06-21T07:01:38.818Z,13.93
2018-06-21T07:04:36.533Z,11.50
2018-06-21T07:07:34.379Z,8.10
2018-06-21T07:10:32.331Z,4.43
2018-06-21T07:13:30.437Z,4.63
2018-06-21T07:16:28.179Z,3.63
2018-06-21T07:19:25.852Z,3.60
2018-06-21T07:22:23.509Z,3.90
2018-06-21T07:25:21.486Z,4.80
2018-06-21T07:28:19.136Z,3.77
2018-06-21T07:31:17.079Z,4.33
2018-06-21T07:34:14.807Z,4.17
2018-06-21T07:37:12.609Z,5.23
2018-06-21T07:40:10.412Z,4.60
2018-06-21T07:43:08.178Z,4.70
2018-06-21T07:46:05.922Z,4.87
2018-06-21T07:49:03.607Z,4.97
2018-06-21T07:52:01.327Z,4.70
2018-06-21T07:54:59.113Z,5.07
2018-06-21T07:57:56.655Z,5.50
2018-06-21T08:00:54.406Z,5.40
2018-06-21T08:03:52.215Z,6.03
2018-06-21T08:06:50.554Z,6.00
2018-06-21T08:09:48.275Z,6.63
2018-06-21T08:12:46.162Z,6.03
2018-06-21T08:15:43.916Z,5.03
2018-06-21T08:18:41.746Z,5.03
2018-06-21T08:21:39.451Z,4.77
2018-06-21T08:24:37.121Z,5.07
2018-06-21T08:27:34.693Z,5.17
2018-06-21T08:30:32.521Z,5.67
2018-06-21T08:33:30.234Z,4.90
2018-06-21T08:36:27.967Z,4.80
2018-06-21T08:39:25.669Z,5.00
2018-06-21T08:42:23.236Z,4.57
2018-06-21T08:45:20.977Z,4.27
2018-06-21T08:48:18.888Z,3.93
2018-06-21T08:51:16.560Z,4.50
2018-06-21T08:54:14.498Z,5.97
2018-06-21T08:57:12.134Z,6.37
2018-06-21T09:00:09.895Z,6.20
2018-06-21T09:03:07.658Z,6.07
2018-06-21T09:06:05.345Z,5.57
2018-06-21T09:09:03.192Z,5.90
2018-06-21T09:12:02.048Z,5.73
2018-06-21T09:15:00.370Z,5.57
2018-06-21T09:17:58.062Z,4.77
2018-06-21T09:20:55.857Z,5.70
2018-06-21T09:23:53.629Z,4.70
2018-06-21T09:26:51.377Z,4.17
2018-06-21T09:29:48.993Z,3.77
2018-06-21T09:32:46.701Z,3.57
2018-06-21T09:35:44.351Z,3.30
2018-06-21T09:38:48.053Z,3.07
2018-06-21T09:41:51.671Z,2.80
2018-06-21T09:45:06.339Z,2.60
2018-06-21T09:48:09.919Z,2.70
2018-06-21T09:51:08.781Z,2.03
2018-06-21T09:54:06.506Z,2.73
2018-06-21T09:57:05.479Z,2.07
2018-06-21T10:00:03.371Z,2.43
2018-06-21T10:03:01.008Z,2.60
2018-06-21T10:05:58.832Z,2.00
2018-06-21T10:08:56.474Z,2.00
2018-06-21T10:11:54.260Z,1.50
2018-06-21T10:14:52.037Z,1.80
2018-06-21T10:17:49.715Z,1.67
2018-06-21T10:20:47.350Z,1.90
2018-06-21T10:23:45.162Z,1.90
2018-06-21T10:26:43.463Z,2.57
2018-06-21T10:29:42.413Z,2.60
2018-06-21T10:32:40.132Z,3.10
2018-06-21T10:35:37.826Z,2.63
2018-06-21T10:38:35.563Z,2.63
2018-06-21T10:41:33.272Z,3.20
2018-06-21T10:44:31.059Z,2.70
2018-06-21T10:47:28.882Z,2.93
2018-06-21T10:50:26.570Z,2.93
2018-06-21T10:53:24.223Z,2.93
2018-06-21T10:56:21.993Z,3.20
2018-06-21T10:59:19.627Z,3.40
2018-06-21T11:02:17.291Z,2.97
2018-06-21T11:05:16.064Z,2.63
2018-06-21T11:08:13.793Z,2.47
2018-06-21T11:11:11.454Z,2.43
2018-06-21T11:14:09.128Z,2.03
2018-06-21T11:17:06.987Z,2.00
2018-06-21T11:20:04.699Z,2.20
2018-06-21T11:23:02.404Z,2.17
2018-06-21T11:26:00.144Z,2.07
2018-06-21T11:28:57.833Z,1.50
2018-06-21T11:31:56.578Z,1.40
2018-06-21T11:34:54.402Z,1.37
2018-06-21T11:37:52.237Z,1.50
2018-06-21T11:40:50.533Z,1.60
2018-06-21T11:43:48.416Z,1.70
2018-06-21T11:46:46.250Z,1.37
2018-06-21T11:49:43.865Z,1.60
2018-06-21T11:52:41.742Z,1.30
2018-06-21T11:55:39.506Z,0.90
2018-06-21T11:58:37.331Z,1.23
2018-06-21T12:01:35.184Z,1.17
2018-06-21T12:04:33.835Z,1.40
2018-06-21T12:07:31.611Z,1.17
2018-06-21T12:10:29.349Z,1.80
2018-06-21T12:13:27.141Z,1.03
2018-06-21T12:16:24.806Z,1.33
2018-06-21T12:19:22.693Z,1.70
2018-06-21T12:22:20.289Z,1.53
2018-06-21T12:25:17.894Z,0.97
2018-06-21T12:28:15.712Z,1.70
2018-06-21T12:31:13.581Z,1.33
2018-06-21T12:34:11.754Z,1.00
2018-06-21T12:37:09.551Z,1.03
2018-06-21T12:40:07.380Z,1.37
2018-06-21T12:43:05.065Z,1.57
2018-06-21T12:46:03.233Z,1.30
2018-06-21T12:49:01.461Z,0.83
2018-06-21T12:51:59.176Z,1.83
2018-06-21T12:54:56.921Z,0.97
2018-06-21T12:57:54.730Z,1.20
2018-06-21T13:00:52.455Z,1.07
2018-06-21T13:03:50.351Z,1.17
2018-06-21T13:06:48.131Z,1.13
2018-06-21T13:09:58.594Z,1.13
2018-06-21T13:14:03.447Z,1.23
2018-06-21T13:17:01.155Z,0.90
2018-06-21T13:19:59.015Z,0.87
2018-06-21T13:22:56.789Z,1.13
2018-06-21T13:25:54.459Z,1.00
2018-06-21T13:28:52.053Z,1.00
2018-06-21T13:31:49.700Z,1.07
2018-06-21T13:34:47.497Z,1.60
2018-06-21T13:37:45.160Z,1.10
2018-06-21T13:40:43.110Z,1.00
2018-06-21T13:43:41.617Z,1.00
2018-06-21T13:46:39.380Z,0.93
2018-06-21T13:49:37.153Z,1.73
2018-06-21T13:52:35.243Z,1.33
2018-06-21T13:55:32.972Z,1.30
2018-06-21T13:58:30.676Z,1.37
2018-06-21T14:01:28.708Z,0.80
2018-06-21T14:04:28.071Z,1.00
2018-06-21T14:07:26.600Z,1.03
2018-06-21T14:10:24.568Z,1.00
2018-06-21T14:13:22.387Z,1.20
2018-06-21T14:16:20.122Z,0.70
2018-06-21T14:19:17.822Z,1.30
2018-06-21T14:22:15.698Z,1.13
2018-06-21T14:25:13.399Z,1.10
2018-06-21T14:28:11.031Z,1.23
2018-06-21T14:31:08.675Z,1.20
2018-06-21T14:34:06.467Z,1.43
2018-06-21T14:37:04.218Z,1.00
2018-06-21T14:40:02.072Z,1.10
2018-06-21T14:42:59.766Z,1.00
2018-06-21T14:45:58.018Z,1.20
2018-06-21T14:48:55.870Z,0.90
2018-06-21T14:51:53.591Z,1.93
2018-06-21T14:54:51.336Z,1.33
2018-06-21T14:57:49.131Z,1.37
2018-06-21T15:00:46.866Z,1.20
2018-06-21T15:03:44.599Z,0.70
2018-06-21T15:06:42.382Z,1.30
2018-06-21T15:09:40.126Z,1.30
2018-06-21T15:12:37.825Z,0.97
2018-06-21T15:15:35.886Z,1.10
2018-06-21T15:18:33.518Z,1.17
2018-06-21T15:21:31.250Z,1.30
2018-06-21T15:24:29.297Z,1.03
2018-06-21T15:27:27.128Z,1.00
2018-06-21T15:30:24.967Z,0.93
2018-06-21T15:33:22.770Z,0.80
2018-06-21T15:36:20.741Z,1.00
2018-06-21T15:39:24.691Z,0.83
2018-06-21T15:42:22.949Z,0.80
2018-06-21T15:45:22.240Z,1.10
2018-06-21T15:48:19.852Z,0.70
2018-06-21T15:51:17.451Z,0.80
2018-06-21T15:54:16.165Z,1.57
2018-06-21T15:57:13.936Z,0.90
2018-06-21T16:00:11.692Z,0.83
2018-06-21T16:03:09.669Z,0.90
2018-06-21T16:06:07.371Z,1.03
2018-06-21T16:09:05.151Z,0.80
2018-06-21T16:12:02.883Z,1.03
2018-06-21T16:15:00.632Z,0.60
2018-06-21T16:17:58.294Z,0.90
2018-06-21T16:20:56.635Z,0.80
2018-06-21T16:23:54.875Z,0.60
2018-06-21T16:26:52.492Z,0.83
2018-06-21T16:29:50.138Z,0.70
2018-06-21T16:32:47.991Z,0.87
2018-06-21T16:35:45.694Z,0.73
2018-06-21T16:38:43.523Z,0.97
2018-06-21T16:41:41.195Z,0.80
2018-06-21T16:44:39.050Z,0.77
2018-06-21T16:47:36.802Z,0.80
2018-06-21T16:50:34.542Z,1.00
2018-06-21T16:53:32.253Z,0.90
2018-06-21T16:56:30.039Z,1.13
2018-06-21T16:59:27.739Z,1.27
2018-06-21T17:02:25.411Z,1.10
2018-06-21T17:05:24.318Z,0.80
2018-06-21T17:08:21.993Z,0.60
2018-06-21T17:11:19.762Z,1.17
2018-06-21T17:14:17.602Z,0.90
2018-06-21T17:17:15.494Z,1.07
2018-06-21T17:20:13.311Z,1.80
2018-06-21T17:23:10.980Z,0.90
2018-06-21T17:26:08.746Z,1.10
2018-06-21T17:29:06.352Z,0.97
2018-06-21T17:32:04.067Z,0.77
2018-06-21T17:35:02.420Z,1.00
2018-06-21T17:38:00.338Z,1.20
2018-06-21T17:40:58.439Z,1.10
2018-06-21T17:43:56.305Z,1.00
2018-06-21T17:46:53.977Z,1.00
2018-06-21T17:49:51.704Z,0.60
2018-06-21T17:52:49.427Z,0.80
2018-06-21T17:55:47.641Z,1.00
2018-06-21T17:58:45.312Z,1.00
2018-06-21T18:01:42.886Z,0.80
2018-06-21T18:04:40.703Z,0.80
2018-06-21T18:07:38.468Z,0.80
2018-06-21T18:10:37.334Z,0.90
2018-06-21T18:13:35.302Z,0.83
2018-06-21T18:16:33.631Z,0.90
2018-06-21T18:19:31.834Z,0.97
2018-06-21T18:22:29.654Z,1.00
2018-06-21T18:25:27.358Z,0.97
2018-06-21T18:28:24.947Z,0.90
2018-06-21T18:31:22.726Z,1.20
2018-06-21T18:34:20.381Z,0.73
2018-06-21T18:37:18.242Z,0.90
2018-06-21T18:40:16.078Z,1.10
2018-06-21T18:43:13.797Z,1.30
2018-06-21T18:46:11.730Z,1.00
2018-06-21T18:49:09.451Z,1.17
2018-06-21T18:52:07.218Z,0.93
2018-06-21T18:55:05.078Z,1.20
2018-06-21T18:58:02.786Z,1.30
2018-06-21T19:01:00.577Z,1.40
2018-06-21T19:03:58.342Z,1.13
2018-06-21T19:07:01.930Z,1.03
2018-06-21T19:10:05.497Z,1.60
2018-06-21T19:13:03.154Z,1.30
2018-06-21T19:16:00.882Z,1.00
2018-06-21T19:18:58.858Z,1.40
2018-06-21T19:21:56.879Z,1.40
2018-06-21T19:24:55.012Z,1.20
2018-06-21T19:27:52.788Z,1.30
2018-06-21T19:30:50.535Z,1.40
2018-06-21T19:33:48.646Z,1.50
2018-06-21T19:36:46.421Z,1.23
2018-06-21T19:39:44.186Z,1.27
2018-06-21T19:42:42.030Z,1.43
2018-06-21T19:45:39.821Z,1.70
2018-06-21T19:48:37.816Z,1.00
2018-06-21T19:51:35.953Z,1.60
2018-06-21T19:54:34.507Z,1.10
2018-06-21T19:57:32.439Z,1.93
2018-06-21T20:00:30.279Z,1.20
2018-06-21T20:03:28.363Z,1.03
2018-06-21T20:06:25.973Z,1.30
2018-06-21T20:09:23.681Z,2.57
2018-06-21T20:12:21.991Z,2.40
2018-06-21T20:15:19.677Z,1.83
2018-06-21T20:18:17.530Z,1.10
2018-06-21T20:21:19.504Z,1.60
2018-06-21T20:24:17.168Z,0.97
2018-06-21T20:27:14.925Z,1.30
2018-06-21T20:30:12.757Z,1.37
2018-06-21T20:33:10.484Z,1.30
2018-06-21T20:36:08.249Z,1.30
2018-06-21T20:39:06.004Z,1.27
2018-06-21T20:42:03.581Z,1.80
2018-06-21T20:45:01.482Z,1.20
2018-06-21T20:47:59.214Z,1.50
2018-06-21T20:50:56.890Z,1.10
2018-06-21T20:53:54.642Z,1.40
2018-06-21T20:56:52.728Z,1.17
2018-06-21T20:59:51.370Z,1.10
2018-06-21T21:02:50.259Z,2.20
2018-06-21T21:05:48.310Z,1.17
2018-06-21T21:08:46.141Z,1.33
2018-06-21T21:11:44.106Z,1.27
2018-06-21T21:14:42.350Z,1.63
2018-06-21T21:17:40.011Z,1.80
2018-06-21T21:20:37.574Z,1.93
2018-06-21T21:23:36.031Z,1.43
2018-06-21T21:26:33.789Z,2.17
2018-06-21T21:29:31.576Z,1.20
2018-06-21T21:32:30.345Z,1.60
2018-06-21T21:35:28.053Z,1.50
2018-06-21T21:38:25.828Z,2.27
2018-06-21T21:41:23.623Z,1.60
2018-06-21T21:44:21.330Z,1.63
2018-06-21T21:47:19.082Z,1.80
2018-06-21T21:50:16.916Z,1.60
2018-06-21T21:53:14.447Z,2.03
2018-06-21T21:56:12.373Z,1.97
2018-06-21T21:59:10.295Z,2.20
2018-06-21T22:02:07.962Z,1.80
2018-06-21T22:05:05.767Z,2.23
2018-06-21T22:08:03.449Z,1.97
2018-06-21T22:11:01.124Z,2.20
2018-06-21T22:14:03.627Z,1.73
2018-06-21T22:17:01.471Z,1.80
2018-06-21T22:19:59.247Z,1.93
2018-06-21T22:22:57.568Z,1.83
2018-06-21T22:25:55.809Z,2.13
2018-06-21T22:28:53.553Z,2.17
2018-06-21T22:31:51.293Z,2.53
2018-06-21T22:34:49.678Z,2.20
2018-06-21T22:37:47.278Z,1.93
2018-06-21T22:40:45.068Z,2.67
2018-06-21T22:43:42.883Z,2.13
2018-06-21T22:46:40.604Z,2.33
2018-06-21T22:49:38.244Z,1.77
2018-06-21T22:52:36.193Z,1.87
2018-06-21T22:55:33.873Z,2.33
2018-06-21T22:58:31.555Z,2.07
2018-06-21T23:01:29.509Z,1.93
2018-06-21T23:04:27.281Z,2.30
2018-06-21T23:07:25.134Z,2.13
2018-06-21T23:10:23.022Z,2.77
2018-06-21T23:13:20.909Z,1.80
2018-06-21T23:16:18.856Z,2.50
2018-06-21T23:19:44.042Z,2.40
2018-06-21T23:22:41.893Z,1.80
2018-06-21T23:25:39.724Z,2.43
2018-06-21T23:28:37.535Z,2.30
2018-06-21T23:31:44.079Z,2.57
2018-06-21T23:34:42.326Z,3.80
2018-06-21T23:37:39.898Z,2.73
2018-06-21T23:40:37.826Z,2.80
2018-06-21T23:43:35.552Z,2.20
2018-06-21T23:46:33.373Z,1.80
2018-06-21T23:49:31.089Z,1.63
2018-06-21T23:52:29.523Z,2.93
2018-06-21T23:55:27.263Z,2.17
2018-06-21T23:58:25.118Z,1.53
